createdAt,value
2023-01-29T00:00:00.623Z,100295.38
2023-01-29T00:01:08.578Z,100294.53
2023-01-29T00:02:10.272Z,100302.94
2023-01-29T00:03:11.968Z,100301.94
2023-01-29T00:04:13.712Z,100301.00
2023-01-29T00:05:27.053Z,100295.81
2023-01-29T00:06:29.618Z,100297.59
2023-01-29T00:07:31.164Z,100294.13
2023-01-29T00:08:36.615Z,100292.50
2023-01-29T00:09:38.257Z,100287.38
2023-01-29T00:10:39.778Z,100287.28
2023-01-29T00:11:41.527Z,100292.38
2023-01-29T00:12:43.068Z,100284.56
2023-01-29T00:13:44.569Z,100287.88
2023-01-29T00:14:46.090Z,100283.53
2023-01-29T00:15:55.043Z,100287.06
2023-01-29T00:16:56.668Z,100290.59
2023-01-29T00:17:58.245Z,100304.53
2023-01-29T00:19:01.328Z,100291.91
2023-01-29T00:20:02.895Z,100299.66
2023-01-29T00:21:08.460Z,100293.72
2023-01-29T00:22:09.975Z,100295.41
2023-01-29T00:23:11.493Z,100300.50
2023-01-29T00:24:13.135Z,100300.53
2023-01-29T00:25:14.733Z,100301.41
2023-01-29T00:26:17.238Z,100302.28
2023-01-29T00:27:22.405Z,100306.50
2023-01-29T00:28:23.972Z,100305.59
2023-01-29T00:29:25.508Z,100308.06
2023-01-29T00:30:27.109Z,100310.63
2023-01-29T00:31:29.588Z,100310.56
2023-01-29T00:32:32.266Z,100307.97
2023-01-29T00:33:33.808Z,100305.41
2023-01-29T00:34:35.345Z,100307.16
2023-01-29T00:35:40.023Z,100313.97
2023-01-29T00:36:41.614Z,100313.22
2023-01-29T00:37:43.143Z,100318.34
2023-01-29T00:38:46.432Z,100320.19
2023-01-29T00:39:48.537Z,100319.25
2023-01-29T00:40:50.153Z,100319.16
2023-01-29T00:41:51.687Z,100315.59
2023-01-29T00:42:53.218Z,100314.69
2023-01-29T00:43:54.816Z,100313.84
2023-01-29T00:44:56.469Z,100308.66
2023-01-29T00:45:58.010Z,100316.25
2023-01-29T00:46:59.917Z,100305.13
2023-01-29T00:48:01.482Z,100309.53
2023-01-29T00:49:03.719Z,100312.03
2023-01-29T00:50:10.707Z,100312.84
2023-01-29T00:51:12.613Z,100311.09
2023-01-29T00:52:14.140Z,100313.53
2023-01-29T00:53:15.682Z,100305.00
2023-01-29T00:54:17.336Z,100303.41
2023-01-29T00:55:19.049Z,100312.25
2023-01-29T00:56:20.599Z,100310.44
2023-01-29T00:57:24.039Z,100312.88
2023-01-29T00:58:25.574Z,100317.94
2023-01-29T00:59:27.266Z,100312.66
2023-01-29T01:00:28.790Z,100311.75
2023-01-29T01:01:30.321Z,100311.75
2023-01-29T01:02:31.857Z,100311.81
2023-01-29T01:03:33.393Z,100312.63
2023-01-29T01:04:35.184Z,100310.06
2023-01-29T01:05:36.803Z,100310.06
2023-01-29T01:06:40.357Z,100308.28
2023-01-29T01:07:41.963Z,100315.97
2023-01-29T01:08:43.515Z,100307.34
2023-01-29T01:09:45.063Z,100310.81
2023-01-29T01:10:46.598Z,100313.41
2023-01-29T01:11:48.214Z,100316.78
2023-01-29T01:13:01.099Z,100315.09
2023-01-29T01:14:02.665Z,100319.41
2023-01-29T01:15:04.912Z,100313.31
2023-01-29T01:16:14.313Z,100317.50
2023-01-29T01:17:16.086Z,100311.38
2023-01-29T01:18:17.626Z,100313.06
2023-01-29T01:19:19.158Z,100308.81
2023-01-29T01:20:20.846Z,100305.50
2023-01-29T01:21:22.501Z,100313.25
2023-01-29T01:22:24.044Z,100314.19
2023-01-29T01:23:25.913Z,100309.91
2023-01-29T01:24:27.591Z,100307.25
2023-01-29T01:25:29.443Z,100304.66
2023-01-29T01:26:31.263Z,100302.00
2023-01-29T01:27:32.851Z,100303.78
2023-01-29T01:28:34.393Z,100308.16
2023-01-29T01:29:35.965Z,100303.78
2023-01-29T01:30:37.598Z,100305.41
2023-01-29T01:31:39.237Z,100300.47
2023-01-29T01:32:41.472Z,100297.81
2023-01-29T01:33:42.986Z,100294.28
2023-01-29T01:34:44.551Z,100290.78
2023-01-29T01:35:48.097Z,100291.78
2023-01-29T01:36:49.823Z,100290.16
2023-01-29T01:37:51.360Z,100294.41
2023-01-29T01:38:53.218Z,100295.25
2023-01-29T01:39:54.781Z,100293.47
2023-01-29T01:40:56.356Z,100294.47
2023-01-29T01:41:57.912Z,100294.38
2023-01-29T01:43:00.563Z,100297.66
2023-01-29T01:44:03.984Z,100294.22
2023-01-29T01:45:14.666Z,100291.63
2023-01-29T01:46:16.266Z,100281.53
2023-01-29T01:47:23.353Z,100283.31
2023-01-29T01:48:26.856Z,100281.69
2023-01-29T01:49:28.436Z,100280.81
2023-01-29T01:50:41.273Z,100282.34
2023-01-29T01:51:47.006Z,100278.06
2023-01-29T01:52:55.280Z,100285.75
2023-01-29T01:54:08.104Z,100284.19
2023-01-29T01:55:13.234Z,100276.63
2023-01-29T01:56:21.451Z,100280.97
2023-01-29T01:57:25.510Z,100275.72
2023-01-29T01:58:40.765Z,100276.44
2023-01-29T01:59:56.740Z,100273.81
2023-01-29T02:00:58.363Z,100265.97
2023-01-29T02:02:00.044Z,100267.53
2023-01-29T02:03:02.522Z,100259.91
2023-01-29T02:04:30.226Z,100258.22
2023-01-29T02:05:34.305Z,100268.66
2023-01-29T02:06:39.701Z,100264.34
2023-01-29T02:07:44.140Z,100266.84
2023-01-29T02:09:22.519Z,100266.06
2023-01-29T02:10:24.145Z,100269.66
2023-01-29T02:11:26.544Z,100262.88
2023-01-29T02:12:28.119Z,100266.34
2023-01-29T02:13:29.712Z,100268.78
2023-01-29T02:14:31.658Z,100267.91
2023-01-29T02:15:33.934Z,100262.81
2023-01-29T02:16:37.659Z,100262.81
2023-01-29T02:17:39.925Z,100267.88
2023-01-29T02:18:41.529Z,100260.00
2023-01-29T02:19:48.679Z,100255.63
2023-01-29T02:21:20.083Z,100261.72
2023-01-29T02:22:51.383Z,100263.31
2023-01-29T02:23:52.906Z,100257.38
2023-01-29T02:25:36.056Z,100254.91
2023-01-29T02:26:55.672Z,100250.66
2023-01-29T02:28:32.567Z,100248.91
2023-01-29T02:29:59.218Z,100242.09
2023-01-29T02:31:08.999Z,100236.94
2023-01-29T02:32:29.327Z,100237.94
2023-01-29T02:33:41.745Z,100236.16
2023-01-29T02:35:10.809Z,100242.16
2023-01-29T02:36:40.539Z,100247.34
2023-01-29T02:37:54.318Z,100238.91
2023-01-29T02:39:07.702Z,100231.94
2023-01-29T02:40:27.304Z,100241.22
2023-01-29T02:41:35.597Z,100227.34
2023-01-29T02:42:57.053Z,100229.81
2023-01-29T02:44:19.935Z,100230.56
2023-01-29T02:45:30.266Z,100233.09
2023-01-29T02:46:46.885Z,100234.75
2023-01-29T02:47:56.497Z,100237.34
2023-01-29T02:49:08.285Z,100237.41
2023-01-29T02:50:29.179Z,100242.59
2023-01-29T02:52:09.672Z,100243.50
2023-01-29T02:53:18.789Z,100234.94
2023-01-29T02:54:24.983Z,100241.88
2023-01-29T02:55:33.120Z,100250.56
2023-01-29T02:56:50.965Z,100250.47
2023-01-29T02:57:59.598Z,100248.72
2023-01-29T02:59:18.398Z,100253.13
2023-01-29T03:00:27.826Z,100252.22
2023-01-29T03:01:39.607Z,100249.53
2023-01-29T03:02:41.001Z,100259.34
2023-01-29T03:03:47.614Z,100255.00
2023-01-29T03:04:54.420Z,100258.34
2023-01-29T03:06:02.768Z,100260.06
2023-01-29T03:07:09.893Z,100256.63
2023-01-29T03:08:18.411Z,100260.06
2023-01-29T03:09:28.226Z,100265.25
2023-01-29T03:11:03.952Z,100262.00
2023-01-29T03:12:13.320Z,100267.03
2023-01-29T03:13:20.780Z,100254.91
2023-01-29T03:14:49.818Z,100265.19
2023-01-29T03:16:00.715Z,100265.25
2023-01-29T03:17:11.655Z,100272.03
2023-01-29T03:18:17.603Z,100267.84
2023-01-29T03:19:31.853Z,100275.47
2023-01-29T03:21:08.811Z,100266.91
2023-01-29T03:22:13.113Z,100274.59
2023-01-29T03:23:22.245Z,100273.72
2023-01-29T03:24:58.598Z,100272.03
2023-01-29T03:26:01.723Z,100279.03
2023-01-29T03:27:09.541Z,100275.63
2023-01-29T03:28:18.029Z,100274.63
2023-01-29T03:29:21.927Z,100273.72
2023-01-29T03:30:27.401Z,100272.91
2023-01-29T03:31:38.325Z,100269.53
2023-01-29T03:32:40.789Z,100268.78
2023-01-29T03:33:49.302Z,100263.59
2023-01-29T03:34:57.409Z,100266.13
2023-01-29T03:36:09.004Z,100265.44
2023-01-29T03:37:39.360Z,100273.00
2023-01-29T03:38:41.038Z,100277.38
2023-01-29T03:39:43.812Z,100274.81
2023-01-29T03:40:55.661Z,100278.25
2023-01-29T03:42:15.797Z,100274.75
2023-01-29T03:43:28.553Z,100272.97
2023-01-29T03:44:49.377Z,100274.50
2023-01-29T03:46:02.055Z,100271.06
2023-01-29T03:47:33.003Z,100264.06
2023-01-29T03:48:37.124Z,100260.47
2023-01-29T03:50:02.860Z,100255.50
2023-01-29T03:51:16.961Z,100268.63
2023-01-29T03:52:23.919Z,100266.22
2023-01-29T03:53:40.921Z,100266.31
2023-01-29T03:54:58.615Z,100262.75
2023-01-29T03:56:08.821Z,100261.03
2023-01-29T03:57:25.293Z,100260.09
2023-01-29T03:58:55.789Z,100257.56
2023-01-29T04:00:22.616Z,100252.25
2023-01-29T04:01:53.433Z,100247.88
2023-01-29T04:03:23.072Z,100246.97
2023-01-29T04:04:30.626Z,100242.75
2023-01-29T04:05:40.098Z,100254.19
2023-01-29T04:07:05.513Z,100247.34
2023-01-29T04:08:14.462Z,100247.34
2023-01-29T04:09:23.195Z,100241.28
2023-01-29T04:10:27.465Z,100234.25
2023-01-29T04:11:31.075Z,100235.06
2023-01-29T04:12:40.111Z,100235.88
2023-01-29T04:13:43.144Z,100240.19
2023-01-29T04:14:44.805Z,100248.84
2023-01-29T04:15:53.065Z,100236.78
2023-01-29T04:17:07.843Z,100236.63
2023-01-29T04:18:15.440Z,100240.09
2023-01-29T04:19:49.775Z,100233.94
2023-01-29T04:20:51.953Z,100234.69
2023-01-29T04:22:03.660Z,100234.78
2023-01-29T04:23:06.418Z,100229.88
2023-01-29T04:24:09.032Z,100230.81
2023-01-29T04:25:13.581Z,100224.78
2023-01-29T04:26:48.640Z,100224.66
2023-01-29T04:28:10.962Z,100224.59
2023-01-29T04:29:30.854Z,100227.25
2023-01-29T04:30:39.179Z,100223.25
2023-01-29T04:31:54.981Z,100214.72
2023-01-29T04:33:23.744Z,100212.19
2023-01-29T04:34:28.120Z,100205.34
2023-01-29T04:35:44.219Z,100201.72
2023-01-29T04:36:58.258Z,100199.84
2023-01-29T04:38:05.339Z,100198.13
2023-01-29T04:39:12.833Z,100194.69
2023-01-29T04:40:28.610Z,100192.94
2023-01-29T04:41:36.045Z,100186.88
2023-01-29T04:42:43.495Z,100187.66
2023-01-29T04:44:12.610Z,100182.53
2023-01-29T04:45:27.103Z,100178.31
2023-01-29T04:46:46.953Z,100179.19
2023-01-29T04:48:03.130Z,100183.59
2023-01-29T04:49:24.174Z,100184.59
2023-01-29T04:50:36.011Z,100174.53
2023-01-29T04:51:50.264Z,100173.59
2023-01-29T04:53:07.194Z,100180.59
2023-01-29T04:54:28.186Z,100175.41
2023-01-29T04:55:36.242Z,100165.03
2023-01-29T04:56:50.019Z,100170.19
2023-01-29T04:58:13.286Z,100166.63
2023-01-29T04:59:21.757Z,100162.28
2023-01-29T05:00:33.539Z,100157.13
2023-01-29T05:01:35.753Z,100164.84
2023-01-29T05:02:39.856Z,100164.78
2023-01-29T05:03:45.236Z,100160.44
2023-01-29T05:04:48.258Z,100164.78
2023-01-29T05:05:51.200Z,100164.72
2023-01-29T05:06:53.293Z,100156.09
2023-01-29T05:07:57.104Z,100171.56
2023-01-29T05:09:00.806Z,100169.78
2023-01-29T05:10:05.456Z,100180.13
2023-01-29T05:11:07.560Z,100174.22
2023-01-29T05:12:11.063Z,100174.38
2023-01-29T05:13:14.926Z,100174.38
2023-01-29T05:14:19.664Z,100176.09
2023-01-29T05:15:26.800Z,100174.28
2023-01-29T05:16:33.338Z,100175.16
2023-01-29T05:17:35.188Z,100178.59
2023-01-29T05:18:36.763Z,100181.22
2023-01-29T05:19:38.536Z,100179.53
2023-01-29T05:20:42.941Z,100173.44
2023-01-29T05:21:49.732Z,100176.00
2023-01-29T05:22:51.353Z,100177.75
2023-01-29T05:24:14.353Z,100179.38
2023-01-29T05:25:20.447Z,100173.50
2023-01-29T05:26:22.174Z,100177.78
2023-01-29T05:27:35.240Z,100176.16
2023-01-29T05:28:36.805Z,100179.69
2023-01-29T05:29:46.767Z,100177.28
2023-01-29T05:30:51.022Z,100183.38
2023-01-29T05:31:52.695Z,100184.22
2023-01-29T05:32:54.240Z,100181.78
2023-01-29T05:33:55.761Z,100181.66
2023-01-29T05:34:57.281Z,100175.63
2023-01-29T05:35:59.902Z,100176.56
2023-01-29T05:37:01.472Z,100177.44
2023-01-29T05:38:03.540Z,100180.09
2023-01-29T05:39:05.059Z,100175.81
2023-01-29T05:40:07.241Z,100181.88
2023-01-29T05:41:08.782Z,100171.56
2023-01-29T05:42:10.349Z,100168.22
2023-01-29T05:43:20.584Z,100168.22
2023-01-29T05:44:22.107Z,100164.69
2023-01-29T05:45:23.639Z,100170.59
2023-01-29T05:46:25.215Z,100172.31
2023-01-29T05:47:26.794Z,100174.03
2023-01-29T05:48:29.541Z,100175.75
2023-01-29T05:49:31.108Z,100173.22
2023-01-29T05:50:32.655Z,100171.63
2023-01-29T05:51:34.219Z,100178.47
2023-01-29T05:52:35.726Z,100173.31
2023-01-29T05:53:37.274Z,100173.28
2023-01-29T05:54:38.773Z,100169.06
2023-01-29T05:55:40.325Z,100173.19
2023-01-29T05:56:41.846Z,100174.78
2023-01-29T05:57:43.382Z,100175.75
2023-01-29T05:58:45.083Z,100177.53
2023-01-29T05:59:46.580Z,100175.91
2023-01-29T06:00:48.151Z,100182.84
2023-01-29T06:01:49.742Z,100186.22
2023-01-29T06:02:51.407Z,100184.44
2023-01-29T06:03:52.978Z,100179.28
2023-01-29T06:04:54.491Z,100187.91
2023-01-29T06:05:55.983Z,100178.38
2023-01-29T06:06:57.480Z,100181.78
2023-01-29T06:07:59.066Z,100179.13
2023-01-29T06:09:00.628Z,100184.28
2023-01-29T06:10:03.606Z,100180.09
2023-01-29T06:11:08.220Z,100181.66
2023-01-29T06:12:09.849Z,100180.69
2023-01-29T06:13:11.377Z,100178.97
2023-01-29T06:14:12.918Z,100177.19
2023-01-29T06:15:15.036Z,100178.03
2023-01-29T06:16:16.710Z,100176.38
2023-01-29T06:17:18.279Z,100180.00
2023-01-29T06:18:19.864Z,100177.34
2023-01-29T06:19:21.436Z,100182.50
2023-01-29T06:20:23.422Z,100186.88
2023-01-29T06:21:24.938Z,100184.28
2023-01-29T06:22:26.490Z,100185.25
2023-01-29T06:23:28.387Z,100186.13
2023-01-29T06:24:29.948Z,100185.19
2023-01-29T06:25:31.843Z,100200.66
2023-01-29T06:26:33.384Z,100200.66
2023-01-29T06:27:34.971Z,100195.31
2023-01-29T06:28:36.502Z,100195.19
2023-01-29T06:29:38.018Z,100194.44
2023-01-29T06:30:39.584Z,100198.00
2023-01-29T06:31:41.279Z,100209.16
2023-01-29T06:32:42.950Z,100208.22
2023-01-29T06:33:44.741Z,100206.44
2023-01-29T06:34:48.629Z,100210.00
2023-01-29T06:35:59.304Z,100205.00
2023-01-29T06:37:00.869Z,100207.72
2023-01-29T06:38:02.409Z,100204.38
2023-01-29T06:39:04.587Z,100209.59
2023-01-29T06:40:06.763Z,100201.88
2023-01-29T06:41:12.734Z,100213.06
2023-01-29T06:42:14.451Z,100208.06
2023-01-29T06:43:16.075Z,100207.13
2023-01-29T06:44:17.724Z,100207.03
2023-01-29T06:45:19.403Z,100212.94
2023-01-29T06:46:21.031Z,100204.25
2023-01-29T06:47:23.627Z,100209.31
2023-01-29T06:48:25.268Z,100207.56
2023-01-29T06:49:26.855Z,100203.38
2023-01-29T06:50:28.384Z,100211.09
2023-01-29T06:51:30.100Z,100218.84
2023-01-29T06:52:31.641Z,100216.13
2023-01-29T06:53:34.102Z,100220.28
2023-01-29T06:54:35.631Z,100228.84
2023-01-29T06:55:37.373Z,100226.22
2023-01-29T06:56:38.912Z,100223.78
2023-01-29T06:57:40.414Z,100227.38
2023-01-29T06:58:41.924Z,100232.59
2023-01-29T06:59:43.451Z,100234.31
2023-01-29T07:00:45.114Z,100231.78
2023-01-29T07:01:46.765Z,100228.47
2023-01-29T07:02:51.715Z,100218.16
2023-01-29T07:03:53.372Z,100230.16
2023-01-29T07:04:54.901Z,100224.88
2023-01-29T07:05:56.435Z,100230.78
2023-01-29T07:06:59.779Z,100222.22
2023-01-29T07:08:01.311Z,100232.59
2023-01-29T07:09:04.045Z,100227.38
2023-01-29T07:10:06.143Z,100234.28
2023-01-29T07:11:08.143Z,100228.25
2023-01-29T07:12:10.724Z,100230.78
2023-01-29T07:13:12.248Z,100232.47
2023-01-29T07:14:13.757Z,100229.06
2023-01-29T07:15:15.572Z,100235.03
2023-01-29T07:16:17.243Z,100239.25
2023-01-29T07:17:18.781Z,100247.72
2023-01-29T07:18:20.297Z,100244.28
2023-01-29T07:19:21.863Z,100240.84
2023-01-29T07:20:25.333Z,100245.03
2023-01-29T07:21:26.926Z,100238.19
2023-01-29T07:22:28.428Z,100243.44
2023-01-29T07:23:29.952Z,100246.84
2023-01-29T07:24:31.552Z,100235.78
2023-01-29T07:25:35.874Z,100244.53
2023-01-29T07:26:37.424Z,100237.69
2023-01-29T07:27:38.934Z,100236.88
2023-01-29T07:28:40.974Z,100233.56
2023-01-29T07:29:42.504Z,100235.19
2023-01-29T07:30:44.063Z,100230.91
2023-01-29T07:31:45.730Z,100226.66
2023-01-29T07:32:47.336Z,100231.91
2023-01-29T07:33:48.872Z,100228.56
2023-01-29T07:34:50.425Z,100230.22
2023-01-29T07:35:52.670Z,100232.69
2023-01-29T07:36:54.254Z,100239.72
2023-01-29T07:37:55.793Z,100244.06
2023-01-29T07:38:57.342Z,100243.19
2023-01-29T07:39:58.907Z,100248.34
2023-01-29T07:41:02.272Z,100245.84
2023-01-29T07:42:04.824Z,100246.66
2023-01-29T07:43:07.704Z,100245.00
2023-01-29T07:44:09.212Z,100248.56
2023-01-29T07:45:11.426Z,100235.53
2023-01-29T07:46:13.040Z,100246.75
2023-01-29T07:47:16.997Z,100245.84
2023-01-29T07:48:19.193Z,100249.25
2023-01-29T07:49:20.861Z,100243.28
2023-01-29T07:50:24.326Z,100244.28
2023-01-29T07:51:25.847Z,100245.16
2023-01-29T07:52:29.865Z,100246.78
2023-01-29T07:53:31.435Z,100249.44
2023-01-29T07:54:32.991Z,100253.88
2023-01-29T07:55:34.548Z,100254.75
2023-01-29T07:56:36.135Z,100255.59
2023-01-29T07:57:37.672Z,100255.59
2023-01-29T07:58:39.214Z,100251.31
2023-01-29T07:59:40.726Z,100263.31
2023-01-29T08:00:42.264Z,100259.94
2023-01-29T08:01:43.791Z,100265.16
2023-01-29T08:02:45.351Z,100260.88
2023-01-29T08:03:46.877Z,100264.28
2023-01-29T08:04:48.365Z,100265.97
2023-01-29T08:05:49.916Z,100264.19
2023-01-29T08:06:51.445Z,100265.91
2023-01-29T08:08:05.775Z,100271.88
2023-01-29T08:09:07.914Z,100270.13
2023-01-29T08:10:09.990Z,100273.69
2023-01-29T08:11:11.544Z,100271.97
2023-01-29T08:12:13.108Z,100277.91
2023-01-29T08:13:14.674Z,100267.47
2023-01-29T08:14:16.241Z,100267.41
2023-01-29T08:15:17.775Z,100264.00
2023-01-29T08:16:19.332Z,100264.88
2023-01-29T08:17:20.918Z,100260.56
2023-01-29T08:18:22.479Z,100259.63
2023-01-29T08:19:24.299Z,100259.59
2023-01-29T08:20:25.997Z,100257.78
2023-01-29T08:21:27.538Z,100264.56
2023-01-29T08:22:29.117Z,100264.56
2023-01-29T08:23:30.801Z,100267.09
2023-01-29T08:24:47.453Z,100262.72
2023-01-29T08:25:54.305Z,100266.94
2023-01-29T08:26:56.027Z,100274.72
2023-01-29T08:28:00.038Z,100273.00
2023-01-29T08:29:01.740Z,100282.31
2023-01-29T08:30:04.629Z,100287.25
2023-01-29T08:31:13.921Z,100280.09
2023-01-29T08:32:15.482Z,100285.75
2023-01-29T08:33:19.424Z,100282.97
2023-01-29T08:34:23.198Z,100289.53
2023-01-29T08:35:25.450Z,100294.75
2023-01-29T08:36:26.969Z,100287.59
2023-01-29T08:37:28.495Z,100277.16
2023-01-29T08:38:30.009Z,100278.53
2023-01-29T08:39:33.631Z,100268.66
2023-01-29T08:40:35.480Z,100271.66
2023-01-29T08:41:37.055Z,100277.38
2023-01-29T08:42:38.564Z,100281.50
2023-01-29T08:43:40.102Z,100280.31
2023-01-29T08:44:41.644Z,100280.03
2023-01-29T08:45:44.341Z,100279.41
2023-01-29T08:46:45.907Z,100285.63
2023-01-29T08:47:49.295Z,100284.59
2023-01-29T08:48:50.852Z,100283.44
2023-01-29T08:49:52.402Z,100284.47
2023-01-29T08:50:57.578Z,100283.75
2023-01-29T08:51:59.103Z,100281.63
2023-01-29T08:53:02.887Z,100285.56
2023-01-29T08:54:04.442Z,100287.91
2023-01-29T08:55:06.481Z,100282.94
2023-01-29T08:56:08.569Z,100282.44
2023-01-29T08:57:10.105Z,100283.31
2023-01-29T08:58:12.161Z,100274.94
2023-01-29T08:59:13.835Z,100266.69
2023-01-29T09:00:16.118Z,100267.38
2023-01-29T09:01:17.927Z,100266.34
2023-01-29T09:02:19.547Z,100269.34
2023-01-29T09:03:21.123Z,100266.03
2023-01-29T09:04:22.703Z,100262.38
2023-01-29T09:05:24.233Z,100257.25
2023-01-29T09:06:25.757Z,100249.59
2023-01-29T09:07:29.310Z,100247.72
2023-01-29T09:08:30.834Z,100249.47
2023-01-29T09:09:32.403Z,100252.38
2023-01-29T09:10:34.455Z,100253.47
2023-01-29T09:11:36.007Z,100253.75
2023-01-29T09:12:37.672Z,100246.91
2023-01-29T09:13:39.187Z,100242.53
2023-01-29T09:14:40.742Z,100244.31
2023-01-29T09:15:42.305Z,100242.81
2023-01-29T09:16:43.852Z,100233.91
2023-01-29T09:17:45.462Z,100235.03
2023-01-29T09:18:47.012Z,100234.41
2023-01-29T09:19:48.587Z,100231.94
2023-01-29T09:20:50.140Z,100229.47
2023-01-29T09:21:51.688Z,100233.38
2023-01-29T09:22:53.205Z,100235.72
2023-01-29T09:23:54.757Z,100235.38
2023-01-29T09:24:56.343Z,100248.00
2023-01-29T09:25:58.169Z,100248.84
2023-01-29T09:26:59.755Z,100240.13
2023-01-29T09:28:01.386Z,100243.00
2023-01-29T09:29:02.913Z,100242.66
2023-01-29T09:30:05.271Z,100244.31
2023-01-29T09:31:06.959Z,100247.22
2023-01-29T09:32:08.593Z,100245.28
2023-01-29T09:33:10.323Z,100247.19
2023-01-29T09:34:11.874Z,100246.06
2023-01-29T09:35:13.437Z,100246.53
2023-01-29T09:36:14.996Z,100244.28
2023-01-29T09:37:16.620Z,100255.28
2023-01-29T09:38:18.125Z,100250.53
2023-01-29T09:39:19.655Z,100249.47
2023-01-29T09:40:27.285Z,100248.78
2023-01-29T09:41:56.395Z,100247.97
2023-01-29T09:43:04.586Z,100243.63
2023-01-29T09:44:19.219Z,100251.94
2023-01-29T09:45:26.507Z,100247.34
2023-01-29T09:46:40.447Z,100244.88
2023-01-29T09:47:42.030Z,100245.53
2023-01-29T09:48:45.258Z,100246.66
2023-01-29T09:49:51.077Z,100238.50
2023-01-29T09:50:55.752Z,100248.00
2023-01-29T09:52:03.371Z,100250.28
2023-01-29T09:53:19.933Z,100252.22
2023-01-29T09:54:32.059Z,100248.56
2023-01-29T09:55:37.200Z,100248.91
2023-01-29T09:56:38.868Z,100242.34
2023-01-29T09:57:58.387Z,100240.72
2023-01-29T09:59:01.706Z,100233.78
2023-01-29T10:00:03.950Z,100232.09
2023-01-29T10:01:10.262Z,100238.34
2023-01-29T10:02:17.716Z,100236.59
2023-01-29T10:03:25.205Z,100227.72
2023-01-29T10:04:45.104Z,100222.31
2023-01-29T10:06:10.874Z,100222.81
2023-01-29T10:07:56.797Z,100221.75
2023-01-29T10:09:32.016Z,100220.00
2023-01-29T10:10:51.555Z,100218.84
2023-01-29T10:12:21.169Z,100214.69
2023-01-29T10:13:44.720Z,100214.19
2023-01-29T10:15:15.565Z,100208.09
2023-01-29T10:16:26.055Z,100201.78
2023-01-29T10:18:03.210Z,100198.28
2023-01-29T10:19:31.988Z,100189.38
2023-01-29T10:20:50.484Z,100186.44
2023-01-29T10:22:00.752Z,100186.72
2023-01-29T10:23:23.040Z,100176.47
2023-01-29T10:24:44.765Z,100176.03
2023-01-29T10:25:47.759Z,100169.34
2023-01-29T10:26:51.710Z,100170.78
2023-01-29T10:27:57.536Z,100161.72
2023-01-29T10:29:01.291Z,100159.59
2023-01-29T10:30:07.816Z,100151.56
2023-01-29T10:31:15.245Z,100148.69
2023-01-29T10:32:20.837Z,100152.97
2023-01-29T10:33:49.408Z,100151.78
2023-01-29T10:35:05.240Z,100146.59
2023-01-29T10:36:18.651Z,100143.44
2023-01-29T10:37:28.613Z,100146.63
2023-01-29T10:38:50.241Z,100139.53
2023-01-29T10:39:51.783Z,100142.13
2023-01-29T10:41:04.815Z,100138.78
2023-01-29T10:42:44.815Z,100132.19
2023-01-29T10:43:49.141Z,100126.88
2023-01-29T10:44:59.731Z,100129.97
2023-01-29T10:46:19.191Z,100122.16
2023-01-29T10:47:49.183Z,100120.81
2023-01-29T10:49:06.137Z,100116.63
2023-01-29T10:50:55.239Z,100115.56
2023-01-29T10:51:56.728Z,100112.97
2023-01-29T10:53:08.150Z,100108.16
2023-01-29T10:54:34.932Z,100108.34
2023-01-29T10:55:42.168Z,100105.75
2023-01-29T10:56:51.141Z,100113.72
2023-01-29T10:57:57.108Z,100106.72
2023-01-29T10:59:03.980Z,100110.16
2023-01-29T11:00:18.009Z,100106.25
2023-01-29T11:01:19.641Z,100110.38
2023-01-29T11:02:21.312Z,100107.38
2023-01-29T11:03:31.475Z,100103.44
2023-01-29T11:04:35.033Z,100100.44
2023-01-29T11:05:44.299Z,100104.44
2023-01-29T11:06:46.377Z,100098.06
2023-01-29T11:07:49.363Z,100100.03
2023-01-29T11:09:02.653Z,100099.88
2023-01-29T11:10:11.722Z,100086.56
2023-01-29T11:11:16.025Z,100083.00
2023-01-29T11:12:24.036Z,100080.09
2023-01-29T11:13:32.345Z,100078.25
2023-01-29T11:14:48.759Z,100079.06
2023-01-29T11:15:52.967Z,100085.09
2023-01-29T11:16:55.447Z,100077.97
2023-01-29T11:18:09.334Z,100083.00
2023-01-29T11:19:11.383Z,100071.06
2023-01-29T11:20:29.289Z,100073.34
2023-01-29T11:21:30.842Z,100071.00
2023-01-29T11:22:32.477Z,100073.75
2023-01-29T11:23:34.145Z,100079.72
2023-01-29T11:24:35.666Z,100071.56
2023-01-29T11:25:37.245Z,100070.63
2023-01-29T11:26:42.123Z,100066.94
2023-01-29T11:27:46.601Z,100067.88
2023-01-29T11:28:50.478Z,100066.81
2023-01-29T11:29:55.683Z,100065.03
2023-01-29T11:30:57.488Z,100063.91
2023-01-29T11:32:00.715Z,100058.34
2023-01-29T11:33:05.025Z,100050.66
2023-01-29T11:34:18.315Z,100055.88
2023-01-29T11:35:22.982Z,100049.56
2023-01-29T11:36:32.547Z,100053.34
2023-01-29T11:37:38.806Z,100044.38
2023-01-29T11:38:40.341Z,100041.38
2023-01-29T11:39:45.693Z,100040.47
2023-01-29T11:40:47.331Z,100045.13
2023-01-29T11:42:03.038Z,100038.91
2023-01-29T11:43:43.207Z,100037.19
2023-01-29T11:44:44.787Z,100039.00
2023-01-29T11:45:48.119Z,100037.47
2023-01-29T11:46:50.103Z,100029.69
2023-01-29T11:47:56.658Z,100030.59
2023-01-29T11:48:59.241Z,100032.34
2023-01-29T11:50:20.294Z,100030.00
2023-01-29T11:51:29.417Z,100030.91
2023-01-29T11:52:40.915Z,100028.50
2023-01-29T11:53:45.804Z,100029.63
2023-01-29T11:54:52.735Z,100040.75
2023-01-29T11:55:54.651Z,100033.16
2023-01-29T11:56:56.931Z,100031.47
2023-01-29T11:58:06.417Z,100022.78
2023-01-29T11:59:36.175Z,100024.72
2023-01-29T12:00:41.172Z,100015.63
2023-01-29T12:01:42.752Z,100024.06
2023-01-29T12:02:47.938Z,100022.41
2023-01-29T12:03:52.815Z,100021.75
2023-01-29T12:04:56.627Z,100021.00
2023-01-29T12:06:03.254Z,100024.44
2023-01-29T12:07:13.661Z,100029.56
2023-01-29T12:08:18.673Z,100031.31
2023-01-29T12:09:24.232Z,100020.31
2023-01-29T12:10:34.356Z,100029.00
2023-01-29T12:11:36.094Z,100019.31
2023-01-29T12:12:41.430Z,100021.75
2023-01-29T12:13:42.987Z,100019.81
2023-01-29T12:14:44.553Z,100017.41
2023-01-29T12:15:47.738Z,100020.22
2023-01-29T12:16:58.532Z,100013.84
2023-01-29T12:18:16.503Z,100016.44
2023-01-29T12:19:45.396Z,100003.13
2023-01-29T12:20:53.489Z,100005.44
2023-01-29T12:22:03.030Z,100009.56
2023-01-29T12:23:05.362Z,100009.38
2023-01-29T12:24:41.598Z,100008.31
2023-01-29T12:26:02.560Z,100011.91
2023-01-29T12:27:12.026Z,100006.72
2023-01-29T12:28:31.641Z,100006.19
2023-01-29T12:29:55.041Z,100005.28
2023-01-29T12:31:15.681Z,99998.69
2023-01-29T12:32:35.186Z,100004.31
2023-01-29T12:34:13.489Z,100000.16
2023-01-29T12:35:27.021Z,99993.88
2023-01-29T12:36:55.265Z,99997.25
2023-01-29T12:38:02.740Z,99993.25
2023-01-29T12:39:04.581Z,99988.28
2023-01-29T12:40:19.301Z,100000.09
2023-01-29T12:41:23.975Z,99999.47
2023-01-29T12:42:25.918Z,99989.50
2023-01-29T12:43:33.480Z,99993.88